Time;durP1;ratioP1;P1;durP2;ratioP2;P2;SDS_P1;SDS_P2;PMS_P1;PMS_P2;Temp;Humidity;BMP_temperature;BMP_pressure;BME280_temperature;BME280_humidity;BME280_pressure;Samples;Min_cycle;Max_cycle;Signal;HPM_P1;HPM_P2
2022/04/26 03:36:11;;;;;;;13.30;7.40;;;;;;;3.67;97.15;97047.71;109590;1253;59708;-65
2022/04/26 03:38:47;;;;;;;21.90;7.40;;;;;;;3.68;97.32;97050.77;109751;1250;70733;-67
2022/04/26 03:41:17;;;;;;;15.80;7.80;;;;;;;3.70;97.68;97046.16;109708;1250;67840;-66
2022/04/26 03:43:47;;;;;;;15.80;7.00;;;;;;;3.72;97.83;97052.23;109712;1250;68919;-67
2022/04/26 03:46:17;;;;;;;20.80;9.80;;;;;;;3.77;97.98;97053.04;109796;1250;59719;-68
2022/04/26 03:48:48;;;;;;;29.20;10.70;;;;;;;3.83;98.39;97061.86;109749;1250;59660;-68
2022/04/26 03:51:18;;;;;;;60.30;15.30;;;;;;;3.87;97.63;97062.36;109767;1251;70657;-67
2022/04/26 03:53:48;;;;;;;33.30;11.80;;;;;;;3.86;96.49;97060.15;109716;1251;67907;-69
2022/04/26 03:56:17;;;;;;;52.20;12.40;;;;;;;3.84;95.06;97066.27;109797;1251;68730;-66
2022/04/26 03:58:47;;;;;;;22.70;11.70;;;;;;;3.80;94.29;97070.46;109838;1251;59790;-67
2022/04/26 04:01:17;;;;;;;22.20;13.30;;;;;;;3.82;95.22;97070.89;109818;1250;59789;-69
2022/04/26 04:03:47;;;;;;;23.30;11.60;;;;;;;3.86;96.72;97071.70;109700;1250;71522;-69
2022/04/26 04:06:19;;;;;;;13.90;9.60;;;;;;;3.94;97.07;97073.20;109752;1250;67912;-69
2022/04/26 04:08:50;;;;;;;27.30;14.20;;;;;;;4.02;97.56;97074.14;109771;1250;68759;-68
2022/04/26 04:11:19;;;;;;;24.70;12.20;;;;;;;4.12;97.89;97074.15;109834;1250;59748;-66
2022/04/26 04:13:48;;;;;;;29.70;12.70;;;;;;;4.23;97.78;97074.43;109823;1250;59754;-68
2022/04/26 04:16:18;;;;;;;38.60;17.00;;;;;;;4.33;97.43;97082.73;109828;1250;71565;-68
2022/04/26 04:21:36;;;;;;;39.50;19.90;;;;;;;4.57;96.43;97089.56;109741;1251;68733;-68
2022/04/26 04:24:06;;;;;;;37.90;19.30;;;;;;;4.73;96.20;97092.45;109812;1250;59711;-65
2022/04/26 04:26:37;;;;;;;23.80;12.10;;;;;;;4.91;95.90;97094.10;109814;1250;59774;-67
2022/04/26 04:29:08;;;;;;;31.00;18.20;;;;;;;5.05;95.43;97096.73;109716;1251;71654;-66
2022/04/26 04:31:38;;;;;;;36.10;20.10;;;;;;;5.17;95.60;97098.88;109813;1251;68443;-68
2022/04/26 04:34:07;;;;;;;17.90;10.50;;;;;;;5.27;95.51;97109.52;109837;1250;68716;-67
2022/04/26 04:36:36;;;;;;;17.30;11.90;;;;;;;5.36;95.43;97111.28;109803;1250;59771;-68
2022/04/26 04:39:06;;;;;;;16.60;10.70;;;;;;;5.45;95.43;97111.80;109851;1250;59701;-67
2022/04/26 04:41:36;;;;;;;16.40;11.60;;;;;;;5.53;95.29;97113.41;109779;1250;70633;-67
2022/04/26 04:44:06;;;;;;;;;;;;;;;5.59;94.80;97107.33;109875;1250;68756;-64
2022/04/26 04:46:35;;;;;;;22.20;15.60;;;;;;;5.63;93.94;97103.30;109742;1251;68655;-67
2022/04/26 04:49:04;;;;;;;18.80;12.30;;;;;;;5.66;93.71;97102.10;109693;1251;59697;-67
2022/04/26 04:51:34;;;;;;;27.00;19.30;;;;;;;5.79;94.50;97097.57;109812;1251;59682;-66
2022/04/26 04:54:04;;;;;;;27.30;18.30;;;;;;;5.94;94.45;97098.27;109760;1251;71534;-69
2022/04/26 04:56:35;;;;;;;21.20;15.80;;;;;;;6.05;94.35;97100.67;109773;1251;68549;-67
2022/04/26 04:59:04;;;;;;;21.10;15.30;;;;;;;6.17;93.98;97103.99;109788;1251;69442;-66
2022/04/26 05:01:34;;;;;;;17.50;12.20;;;;;;;6.27;93.89;97106.47;109598;1253;59661;-68
2022/04/26 05:04:04;;;;;;;12.40;8.80;;;;;;;6.43;93.89;97111.59;109724;1250;59673;-66
2022/04/26 05:06:33;;;;;;;12.80;9.40;;;;;;;6.80;94.39;97118.31;109771;1250;71569;-66
2022/04/26 05:09:02;;;;;;;18.10;12.20;;;;;;;7.27;92.99;97118.61;109792;1251;66838;-68
2022/04/26 05:11:32;;;;;;;13.30;10.00;;;;;;;7.67;88.24;97125.03;109822;1250;69247;-66
2022/04/26 05:14:02;;;;;;;;;;;;;;;8.08;87.74;97127.85;109554;1252;59787;-67
2022/04/26 05:16:31;;;;;;;8.00;6.20;;;;;;;8.38;87.40;97129.52;109880;1250;59709;-67
2022/04/26 05:19:01;;;;;;;14.20;9.40;;;;;;;8.56;87.03;97131.90;109865;1250;70570;-68
2022/04/26 05:21:30;;;;;;;8.00;5.70;;;;;;;8.69;88.55;97125.83;109830;1250;68759;-66
2022/04/26 05:26:47;;;;;;;10.50;7.40;;;;;;;9.18;85.24;97123.23;109697;1251;60217;-66
2022/04/26 05:29:16;;;;;;;10.70;8.40;;;;;;;9.56;88.00;97124.65;109850;1250;59692;-65
2022/04/26 05:31:45;;;;;;;10.80;8.70;;;;;;;9.82;86.45;97121.01;109814;1250;71586;-67
2022/04/26 05:34:14;;;;;;;10.80;8.20;;;;;;;9.76;83.69;97129.24;109731;1251;68579;-67
2022/04/26 05:36:44;;;;;;;9.30;6.80;;;;;;;9.37;81.18;97136.48;109506;1252;68643;-67
2022/04/26 05:39:13;;;;;;;8.50;6.90;;;;;;;9.29;81.71;97144.50;109576;1252;59716;-68
2022/04/26 05:41:45;;;;;;;8.40;6.70;;;;;;;9.28;82.02;97148.77;109591;1252;59703;-67
2022/04/26 05:44:14;;;;;;;9.30;7.50;;;;;;;9.25;82.86;97156.67;109775;1251;71545;-69
2022/04/26 05:46:44;;;;;;;13.60;9.70;;;;;;;9.20;83.81;97162.01;109646;1252;68532;-67
2022/04/26 05:49:13;;;;;;;10.10;8.00;;;;;;;9.25;84.24;97160.29;109628;1253;69494;-67
2022/04/26 05:51:42;;;;;;;13.20;9.30;;;;;;;9.22;84.06;97168.52;109609;1253;59769;-68
2022/04/26 05:54:11;;;;;;;10.10;8.20;;;;;;;9.15;84.00;97170.02;109625;1253;59649;-68
2022/04/26 05:56:43;;;;;;;11.60;9.80;;;;;;;9.09;84.17;97167.86;109729;1251;72145;-67
2022/04/26 05:59:12;;;;;;;14.70;8.60;;;;;;;9.00;84.26;97172.29;109685;1251;67957;-66
2022/04/26 06:01:42;;;;;;;9.20;7.80;;;;;;;8.87;84.52;97180.20;109723;1251;69296;-67
2022/04/26 06:04:11;;;;;;;9.60;7.40;;;;;;;8.76;85.11;97183.38;109526;1252;59688;-69
2022/04/26 06:06:41;;;;;;;8.80;6.40;;;;;;;8.74;85.72;97185.79;109584;1252;59692;-66
2022/04/26 06:09:14;;;;;;;9.90;6.50;;;;;;;8.83;86.87;97185.63;109601;1253;71522;-67
2022/04/26 06:11:44;;;;;;;8.00;6.30;;;;;;;9.01;87.40;97186.51;109653;1251;68084;-69
2022/04/26 06:14:15;;;;;;;10.90;6.30;;;;;;;9.21;87.34;97187.51;109604;1253;70020;-68
2022/04/26 06:16:44;;;;;;;11.00;7.70;;;;;;;9.40;87.25;97185.84;109778;1252;59696;-67
2022/04/26 06:19:13;;;;;;;9.20;7.30;;;;;;;9.54;86.74;97185.64;109625;1252;59749;-69
2022/04/26 06:21:43;;;;;;;10.60;7.70;;;;;;;9.63;86.65;97182.26;109622;1252;71394;-68
2022/04/26 06:24:12;;;;;;;9.10;7.60;;;;;;;9.74;86.76;97183.48;109888;1250;68641;-66
2022/04/26 06:26:46;;;;;;;8.40;5.90;;;;;;;9.88;86.22;97184.90;109688;1251;67709;-67
2022/04/26 06:29:15;;;;;;;9.80;7.20;;;;;;;9.98;85.58;97181.63;109611;1253;59871;-66
2022/04/26 06:31:46;;;;;;;9.30;6.80;;;;;;;9.96;84.97;97181.91;109561;1252;59658;-69
2022/04/26 06:34:17;;;;;;;11.90;7.90;;;;;;;10.01;85.13;97180.85;109764;1251;71823;-69
2022/04/26 06:36:46;;;;;;;10.80;7.70;;;;;;;10.10;85.20;97179.47;109661;1252;67827;-68
2022/04/26 06:39:16;;;;;;;13.60;9.10;;;;;;;10.18;84.63;97181.45;109582;1253;68755;-68
2022/04/26 06:41:47;;;;;;;11.00;8.60;;;;;;;10.14;83.79;97184.94;109525;1252;59808;-67
2022/04/26 06:44:16;;;;;;;;;;;;;;;10.13;83.62;97185.37;109611;1252;59854;-68
2022/04/26 06:46:45;;;;;;;9.60;8.40;;;;;;;10.20;83.51;97187.29;109763;1251;71726;-67
2022/04/26 06:49:14;;;;;;;14.20;8.90;;;;;;;10.27;83.25;97187.30;109618;1253;68625;-66
2022/04/26 06:51:44;;;;;;;10.30;8.30;;;;;;;10.34;83.54;97188.88;109669;1251;69539;-67
2022/04/26 06:54:13;;;;;;;8.10;6.90;;;;;;;10.42;82.63;97188.98;109589;1252;59678;-68
2022/04/26 06:56:45;;;;;;;10.90;8.60;;;;;;;10.47;81.53;97186.84;109811;1251;59782;-67
2022/04/26 06:59:15;;;;;;;10.60;8.00;;;;;;;10.51;81.30;97190.75;109680;1252;71369;-67
2022/04/26 07:01:44;;;;;;;13.50;8.80;;;;;;;10.61;81.19;97194.81;109561;1253;68536;-67
2022/04/26 07:04:14;;;;;;;10.70;7.50;;;;;;;10.68;81.85;97197.25;109632;1251;69436;-67
2022/04/26 07:06:43;;;;;;;12.20;8.50;;;;;;;10.76;81.28;97198.43;109756;1252;59783;-66
2022/04/26 07:09:13;;;;;;;11.10;8.10;;;;;;;10.80;81.48;97197.61;109769;1251;59704;-67
2022/04/26 07:11:42;;;;;;;10.80;8.90;;;;;;;10.83;80.96;97197.48;109614;1252;71034;-67
2022/04/26 07:14:13;;;;;;;10.00;7.20;;;;;;;10.92;81.25;97199.04;109790;1251;68688;-64
2022/04/26 07:16:48;;;;;;;8.90;7.90;;;;;;;11.00;81.07;97197.41;109576;1252;69610;-67
2022/04/26 07:19:18;;;;;;;10.90;7.90;;;;;;;11.02;79.91;97196.36;109581;1252;59770;-66
2022/04/26 07:21:47;;;;;;;9.10;6.90;;;;;;;11.09;79.06;97192.50;109580;1253;59755;-64
2022/04/26 07:24:33;;;;;;;10.10;7.90;;;;;;;11.24;79.90;97192.89;109630;1253;70812;-64
2022/04/26 07:27:03;;;;;;;9.60;7.50;;;;;;;11.35;79.82;97199.70;109410;1253;67846;-65
2022/04/26 07:29:32;;;;;;;9.40;7.30;;;;;;;11.46;79.17;97201.48;109590;1252;68655;-67
2022/04/26 07:32:02;;;;;;;8.60;7.30;;;;;;;11.78;79.85;97200.59;109528;1253;59784;-67
2022/04/26 07:34:31;;;;;;;9.10;8.00;;;;;;;12.09;78.48;97207.19;109809;1251;59773;-67
2022/04/26 07:37:02;;;;;;;6.90;5.60;;;;;;;12.27;75.60;97206.41;109728;1253;71583;-68
2022/04/26 07:39:35;;;;;;;7.60;5.50;;;;;;;12.71;75.19;97210.41;109805;1252;68144;-67
2022/04/26 07:42:06;;;;;;;6.30;5.50;;;;;;;13.43;74.52;97205.87;109527;1253;69591;-67
2022/04/26 07:44:35;;;;;;;9.90;7.60;;;;;;;14.21;71.11;97204.34;109793;1251;59758;-68
2022/04/26 07:47:05;;;;;;;7.50;6.10;;;;;;;14.80;67.99;97206.98;109734;1251;59682;-67
2022/04/26 07:49:36;;;;;;;7.40;5.70;;;;;;;15.43;66.65;97206.99;109625;1252;71646;-66
2022/04/26 07:52:06;;;;;;;6.80;5.80;;;;;;;16.07;68.78;97212.11;109670;1252;68646;-66
2022/04/26 07:54:36;;;;;;;;;;;;;;;16.61;65.03;97220.42;109818;1252;68654;-66
2022/04/26 07:57:05;;;;;;;;;;;;;;;16.82;61.93;97220.41;109713;1252;59770;-68
2022/04/26 07:59:34;;;;;;;6.20;5.00;;;;;;;17.07;59.90;97219.91;109786;1251;59722;-69
2022/04/26 08:02:08;;;;;;;6.60;5.50;;;;;;;17.27;57.83;97217.60;109605;1253;72127;-68
2022/04/26 08:04:43;;;;;;;8.50;5.70;;;;;;;17.62;57.53;97215.53;109546;1250;68495;-68
2022/04/26 08:07:12;;;;;;;6.00;5.20;;;;;;;18.00;59.86;97220.02;109760;1251;67760;-68
2022/04/26 08:09:43;;;;;;;6.60;5.90;;;;;;;18.22;55.79;97222.42;109895;1252;59722;-66
2022/04/26 08:12:12;;;;;;;6.20;5.50;;;;;;;18.57;55.92;97225.88;109890;1251;59714;-66
2022/04/26 08:14:41;;;;;;;7.00;6.40;;;;;;;18.71;53.32;97225.06;109466;1251;71653;-67
2022/04/26 08:17:11;;;;;;;5.10;4.50;;;;;;;19.24;53.41;97226.66;109672;1252;68318;-67
2022/04/26 08:19:44;;;;;;;5.70;4.90;;;;;;;19.60;54.03;97223.48;109778;1251;68898;-68
2022/04/26 08:22:13;;;;;;;6.20;5.60;;;;;;;19.46;52.55;97227.02;109620;1252;59780;-68
2022/04/26 08:27:33;;;;;;;6.60;5.30;;;;;;;19.52;53.41;97226.14;110017;1251;71380;-66
2022/04/26 08:30:04;;;;;;;5.60;4.90;;;;;;;20.00;52.82;97224.13;109592;1253;67806;-68
2022/04/26 08:32:47;;;;;;;6.60;5.70;;;;;;;20.22;50.15;97218.45;109614;1253;68755;-69
2022/04/26 08:35:20;;;;;;;7.10;5.20;;;;;;;20.20;48.50;97215.30;109521;1252;60148;-67
2022/04/26 08:38:04;;;;;;;5.70;4.70;;;;;;;20.50;49.19;97210.09;109891;1252;59755;-66
2022/04/26 08:40:35;;;;;;;3.80;3.40;;;;;;;20.54;48.52;97213.54;109777;1252;70843;-67
2022/04/26 08:43:04;;;;;;;4.90;3.30;;;;;;;20.64;43.79;97212.88;109806;1250;68716;-67
2022/04/26 08:45:37;;;;;;;4.90;4.40;;;;;;;20.52;45.73;97212.24;109832;1250;68772;-67
2022/04/26 08:51:02;;;;;;;5.30;3.70;;;;;;;21.16;44.69;97219.27;109895;1250;59664;-67
2022/04/26 08:53:33;;;;;;;4.30;3.40;;;;;;;21.58;43.83;97216.75;109901;1250;70969;-66
2022/04/26 08:56:06;;;;;;;4.00;3.10;;;;;;;21.75;41.91;97215.59;109769;1250;67835;-67
2022/04/26 08:58:36;;;;;;;5.00;3.30;;;;;;;22.18;40.58;97211.66;109584;1252;69418;-66
2022/04/26 09:01:11;;;;;;;4.20;3.30;;;;;;;22.60;40.06;97216.65;109638;1251;59771;-66
2022/04/26 09:03:59;;;;;;;2.90;2.30;;;;;;;22.70;38.72;97211.83;109810;1250;60056;-65
2022/04/26 09:06:36;;;;;;;3.30;2.50;;;;;;;22.48;38.39;97209.83;109516;1250;71398;-66
2022/04/26 09:09:14;;;;;;;4.70;3.30;;;;;;;22.04;38.01;97208.46;109739;1251;69392;-67
2022/04/26 09:11:43;;;;;;;3.60;2.30;;;;;;;22.15;39.42;97211.16;109722;1252;68715;-66
2022/04/26 09:14:30;;;;;;;3.50;2.50;;;;;;;22.25;38.81;97210.73;109757;1251;59681;-66
2022/04/26 09:17:11;;;;;;;4.90;3.00;;;;;;;22.48;38.94;97213.66;109764;1253;59660;-66
2022/04/26 09:19:49;;;;;;;2.50;2.00;;;;;;;23.01;38.84;97213.42;109712;1251;71931;-68
2022/04/26 09:22:27;;;;;;;3.40;2.20;;;;;;;23.61;38.45;97217.65;109740;1251;68527;-66
2022/04/26 09:25:07;;;;;;;4.30;3.10;;;;;;;23.80;38.73;97216.18;109715;1251;70222;-68
2022/04/26 09:27:38;;;;;;;4.30;3.90;;;;;;;23.47;38.06;97217.69;109865;1251;60120;-65
2022/04/26 09:30:13;;;;;;;4.60;3.70;;;;;;;22.98;37.33;97213.91;109795;1251;59693;-66
2022/04/26 09:32:49;;;;;;;3.40;2.70;;;;;;;22.56;38.40;97213.76;109721;1253;69994;-67
2022/04/26 09:35:23;;;;;;;5.40;3.50;;;;;;;22.92;39.33;97216.96;109733;1250;68585;-65
2022/04/26 09:37:52;;;;;;;3.80;2.50;;;;;;;23.33;37.29;97214.73;109918;1250;69513;-66
2022/04/26 09:40:29;;;;;;;3.50;2.80;;;;;;;23.99;35.63;97212.05;109570;1252;59740;-69
2022/04/26 09:42:57;;;;;;;3.80;2.80;;;;;;;24.10;32.61;97213.27;109737;1252;59765;-66
2022/04/26 09:45:27;;;;;;;3.60;2.60;;;;;;;23.88;32.99;97211.69;109714;1251;70799;-66
2022/04/26 09:47:59;;;;;;;5.30;3.60;;;;;;;23.66;33.94;97210.91;109569;1252;69335;-65
2022/04/26 09:50:29;;;;;;;3.90;2.80;;;;;;;22.85;33.93;97211.75;109484;1252;69017;-66
2022/04/26 09:52:58;;;;;;;3.00;2.40;;;;;;;22.69;35.55;97206.58;109575;1252;59716;-67
2022/04/26 09:55:29;;;;;;;4.40;2.30;;;;;;;23.32;36.36;97207.71;109679;1252;59691;-68
2022/04/26 09:58:01;;;;;;;3.80;3.50;;;;;;;23.50;34.83;97203.44;109818;1253;71751;-65
2022/04/26 10:00:32;;;;;;;4.90;3.30;;;;;;;23.12;34.80;97205.23;109731;1251;68725;-68
2022/04/26 10:03:09;;;;;;;3.40;3.10;;;;;;;22.43;35.78;97196.91;109760;1251;69375;-65
2022/04/26 10:05:41;;;;;;;4.70;3.80;;;;;;;22.25;36.83;97198.73;109863;1252;59695;-66
2022/04/26 10:08:11;;;;;;;4.00;2.80;;;;;;;22.31;36.25;97196.92;109851;1251;59683;-67
2022/04/26 10:10:41;;;;;;;3.70;2.70;;;;;;;21.94;36.42;97195.17;109914;1250;71600;-66
2022/04/26 10:13:32;;;;;;;3.70;2.60;;;;;;;22.23;36.31;97192.52;109899;1250;67618;-64
2022/04/26 10:16:05;;;;;;;4.30;2.60;;;;;;;22.59;36.98;97197.91;109669;1251;67895;-65
2022/04/26 10:18:43;;;;;;;3.50;2.60;;;;;;;22.91;34.72;97196.88;109837;1250;59786;-67
2022/04/26 10:21:22;;;;;;;4.60;2.80;;;;;;;23.29;34.28;97192.95;109926;1250;59692;-65
2022/04/26 10:23:52;;;;;;;3.80;2.70;;;;;;;23.18;32.51;97196.45;109692;1252;70808;-65
2022/04/26 10:26:24;;;;;;;3.80;2.90;;;;;;;22.87;33.79;97198.11;109878;1251;67868;-66
2022/04/26 10:29:01;;;;;;;3.40;2.60;;;;;;;22.59;34.70;97197.44;109755;1250;68750;-66
2022/04/26 10:31:36;;;;;;;3.10;2.10;;;;;;;22.46;35.44;97199.73;109681;1250;59763;-68
2022/04/26 10:34:24;;;;;;;3.40;2.50;;;;;;;22.22;35.91;97197.89;109846;1250;59645;-66
2022/04/26 10:37:01;;;;;;;3.20;2.20;;;;;;;22.17;35.88;97194.27;109689;1252;71570;-67
2022/04/26 10:39:37;;;;;;;4.40;3.10;;;;;;;22.15;36.43;97191.50;109778;1251;67946;-68
2022/04/26 10:42:19;;;;;;;3.60;2.50;;;;;;;22.33;36.39;97193.73;109889;1251;69404;-67
2022/04/26 10:44:49;;;;;;;2.20;1.70;;;;;;;21.92;35.03;97199.84;109656;1253;59699;-65
2022/04/26 10:47:18;;;;;;;2.90;1.70;;;;;;;21.08;35.80;97203.07;109781;1251;59712;-66
2022/04/26 10:49:52;;;;;;;2.50;1.70;;;;;;;20.56;36.73;97202.60;109736;1251;72288;-66
2022/04/26 10:52:24;;;;;;;3.10;2.00;;;;;;;21.11;36.32;97200.88;109737;1251;67890;-66
2022/04/26 10:54:55;;;;;;;4.40;2.20;;;;;;;21.87;35.22;97195.85;109786;1252;68621;-68
2022/04/26 10:57:27;;;;;;;1.80;1.30;;;;;;;22.29;34.64;97196.80;109785;1251;59741;-66
2022/04/26 11:00:04;;;;;;;1.40;1.20;;;;;;;22.22;33.08;97193.36;109738;1251;59697;-65
2022/04/26 11:02:36;;;;;;;3.10;2.20;;;;;;;22.41;33.88;97197.36;109756;1253;71614;-66
2022/04/26 11:05:17;;;;;;;3.80;2.10;;;;;;;22.41;34.96;97197.13;109889;1253;68624;-67
2022/04/26 11:07:48;;;;;;;1.60;1.00;;;;;;;22.66;35.28;97195.61;109777;1250;69274;-67
2022/04/26 11:10:26;;;;;;;3.00;2.00;;;;;;;22.42;32.44;97197.89;109694;1252;59618;-67
2022/04/26 11:12:58;;;;;;;2.50;1.40;;;;;;;22.58;34.81;97199.14;109782;1252;59657;-67
2022/04/26 11:15:29;;;;;;;2.30;1.40;;;;;;;23.27;32.67;97201.70;109860;1251;71783;-66
2022/04/26 11:17:58;;;;;;;1.80;1.20;;;;;;;24.11;33.06;97193.64;109699;1251;68078;-65
2022/04/26 11:20:27;;;;;;;2.60;1.40;;;;;;;24.74;30.93;97199.48;109739;1251;68746;-66
2022/04/26 11:22:58;;;;;;;2.80;1.80;;;;;;;24.92;30.61;97201.56;109540;1253;59733;-66
2022/04/26 11:28:17;;;;;;;2.90;1.60;;;;;;;24.71;30.71;97197.25;109783;1250;69793;-69
2022/04/26 11:30:55;;;;;;;2.50;2.10;;;;;;;24.79;30.46;97196.15;109923;1253;68460;-67
2022/04/26 11:33:25;;;;;;;2.50;1.90;;;;;;;25.02;29.75;97199.92;109731;1251;68695;-67
2022/04/26 11:36:00;;;;;;;1.90;1.20;;;;;;;24.58;29.76;97194.38;109699;1250;59706;-66
2022/04/26 11:38:29;;;;;;;2.50;1.30;;;;;;;24.26;30.74;97196.55;109963;1250;59731;-67
2022/04/26 11:41:00;;;;;;;3.20;2.20;;;;;;;24.19;31.40;97194.05;109676;1253;71242;-67
2022/04/26 11:43:31;;;;;;;2.00;1.30;;;;;;;24.34;33.69;97197.27;109777;1250;68721;-67
2022/04/26 11:46:02;;;;;;;2.70;1.80;;;;;;;23.86;33.58;97194.15;109604;1253;68479;-67
2022/04/26 11:48:34;;;;;;;2.50;1.90;;;;;;;23.30;34.35;97192.16;109760;1251;59702;-66
2022/04/26 11:51:04;;;;;;;2.10;1.70;;;;;;;22.87;35.55;97187.29;109781;1251;59715;-66
2022/04/26 11:53:37;;;;;;;2.20;1.50;;;;;;;22.81;35.30;97186.58;109756;1252;70869;-65
2022/04/26 11:56:08;;;;;;;2.60;1.90;;;;;;;22.81;35.68;97185.52;109813;1251;68671;-66
2022/04/26 11:58:40;;;;;;;3.30;1.80;;;;;;;23.45;34.50;97179.50;109816;1251;69304;-64
2022/04/26 12:01:11;;;;;;;4.50;2.00;;;;;;;24.07;34.36;97177.13;109808;1253;59699;-68
2022/04/26 12:03:49;;;;;;;2.70;1.50;;;;;;;24.55;33.54;97179.48;109713;1251;59686;-67
2022/04/26 12:06:28;;;;;;;2.80;1.90;;;;;;;25.08;31.56;97181.69;109768;1252;72132;-67
2022/04/26 12:09:01;;;;;;;1.90;1.60;;;;;;;25.28;29.99;97177.55;109756;1252;67950;-67
2022/04/26 12:11:35;;;;;;;1.70;1.50;;;;;;;25.55;29.19;97163.38;109679;1251;68589;-66
2022/04/26 12:14:16;;;;;;;2.10;1.30;;;;;;;25.27;28.49;97163.85;109754;1251;59712;-66
2022/04/26 12:16:47;;;;;;;2.60;1.70;;;;;;;25.35;29.83;97159.05;109820;1252;59644;-65
2022/04/26 12:19:17;;;;;;;1.70;1.20;;;;;;;25.27;29.18;97155.44;109754;1253;72134;-66
2022/04/26 12:21:49;;;;;;;2.70;1.70;;;;;;;25.35;29.95;97151.84;109589;1253;67901;-67
2022/04/26 12:24:23;;;;;;;2.20;1.50;;;;;;;25.22;29.13;97154.14;109766;1253;69578;-68
2022/04/26 12:27:12;;;;;;;2.10;1.30;;;;;;;25.36;30.98;97154.72;109863;1251;59744;-66
2022/04/26 12:29:43;;;;;;;5.30;1.80;;;;;;;25.83;28.75;97152.39;109747;1251;59699;-67
2022/04/26 12:32:16;;;;;;;2.90;1.50;;;;;;;25.89;28.55;97148.52;109587;1253;71030;-66
2022/04/26 12:35:00;;;;;;;3.20;1.40;;;;;;;25.87;29.73;97148.66;109851;1251;68548;-67
2022/04/26 12:37:31;;;;;;;3.50;1.60;;;;;;;25.45;28.74;97151.41;109753;1253;70080;-69
2022/04/26 12:40:10;;;;;;;3.90;1.20;;;;;;;24.15;30.35;97145.85;109920;1251;59727;-68
2022/04/26 12:42:40;;;;;;;3.80;1.50;;;;;;;24.20;31.34;97150.89;109759;1253;59666;-67
2022/04/26 12:45:21;;;;;;;1.40;0.90;;;;;;;24.16;30.89;97149.41;109862;1251;70571;-67
2022/04/26 12:51:21;;;;;;;1.20;0.70;;;;;;;24.72;29.15;97141.06;109761;1253;68795;-68
2022/04/26 12:54:16;;;;;;;1.70;1.00;;;;;;;24.56;30.06;97137.00;109744;1251;59683;-66
2022/04/26 12:57:03;;;;;;;1.60;1.40;;;;;;;24.82;30.21;97136.81;109814;1251;59685;-66
2022/04/26 12:59:35;;;;;;;1.90;0.90;;;;;;;24.56;28.64;97131.04;109786;1251;70544;-68
2022/04/26 13:02:06;;;;;;;2.20;1.30;;;;;;;24.31;29.61;97126.75;109892;1253;68063;-66
2022/04/26 13:04:36;;;;;;;2.10;1.40;;;;;;;24.11;29.97;97123.56;109759;1251;68744;-68
2022/04/26 13:07:06;;;;;;;2.50;1.70;;;;;;;24.00;29.33;97121.17;109746;1253;59680;-67
2022/04/26 13:09:36;;;;;;;2.60;1.80;;;;;;;23.78;30.25;97119.69;109533;1252;59698;-67
2022/04/26 13:12:06;;;;;;;1.70;1.30;;;;;;;23.57;30.06;97121.34;109635;1253;70803;-65
2022/04/26 13:14:35;;;;;;;2.40;1.40;;;;;;;23.31;30.42;97116.23;109741;1252;69195;-65
2022/04/26 13:17:12;;;;;;;2.90;1.40;;;;;;;23.02;31.23;97115.36;109570;1253;68042;-67
2022/04/26 13:19:41;;;;;;;3.20;1.60;;;;;;;23.21;31.39;97113.04;109763;1251;59764;-65
2022/04/26 13:22:11;;;;;;;2.30;1.60;;;;;;;22.74;31.33;97111.67;109686;1251;59692;-66
2022/04/26 13:24:41;;;;;;;1.70;1.40;;;;;;;22.24;32.01;97115.02;109784;1251;71147;-67
2022/04/26 13:27:11;;;;;;;2.50;1.30;;;;;;;21.94;32.56;97110.56;109752;1250;67873;-67
2022/04/26 13:29:40;;;;;;;2.30;1.00;;;;;;;22.03;34.16;97104.80;109817;1250;69011;-68
2022/04/26 13:32:10;;;;;;;1.20;1.10;;;;;;;22.32;33.47;97103.73;109826;1250;60124;-66
2022/04/26 13:34:39;;;;;;;1.10;1.00;;;;;;;22.39;32.99;97104.52;109873;1250;59641;-67
2022/04/26 13:37:08;;;;;;;3.20;1.30;;;;;;;22.68;33.17;97101.23;109782;1250;70893;-66
2022/04/26 13:39:39;;;;;;;1.10;1.00;;;;;;;22.87;33.74;97099.47;109840;1250;68429;-67
2022/04/26 13:42:09;;;;;;;4.10;1.50;;;;;;;23.15;33.63;97092.13;109875;1250;68818;-65
2022/04/26 13:44:40;;;;;;;5.10;1.60;;;;;;;23.10;33.28;97095.63;109874;1250;59796;-66
2022/04/26 13:47:09;;;;;;;2.20;1.30;;;;;;;23.15;32.70;97094.87;109808;1250;59707;-67
2022/04/26 13:49:41;;;;;;;1.50;1.10;;;;;;;22.97;31.90;97090.96;109854;1250;70677;-68
2022/04/26 13:52:10;;;;;;;1.60;1.00;;;;;;;22.71;32.76;97091.38;109770;1250;68756;-67
2022/04/26 13:54:42;;;;;;;2.00;1.20;;;;;;;22.84;32.14;97089.49;109779;1251;68628;-67
2022/04/26 13:57:12;;;;;;;2.30;1.20;;;;;;;22.90;31.91;97087.98;110004;1250;59751;-66
2022/04/26 13:59:41;;;;;;;1.40;1.00;;;;;;;23.04;32.53;97090.15;109870;1250;59652;-65
2022/04/26 14:02:12;;;;;;;1.00;0.90;;;;;;;23.13;32.81;97088.91;109871;1250;71190;-68
2022/04/26 14:04:42;;;;;;;1.40;1.10;;;;;;;23.20;32.15;97090.42;109851;1250;68592;-68
2022/04/26 14:07:11;;;;;;;1.30;0.90;;;;;;;23.29;32.36;97089.15;109790;1250;68867;-67
2022/04/26 14:09:41;;;;;;;2.20;1.00;;;;;;;23.08;31.69;97088.19;109849;1250;59718;-67
2022/04/26 14:12:12;;;;;;;2.90;1.20;;;;;;;23.03;32.02;97085.48;109857;1250;59766;-67
2022/04/26 14:23:03;;;;;;;1.30;0.90;;;;;;;22.63;32.61;97082.55;109816;1250;59676;-67
2022/04/26 14:25:33;;;;;;;;;;;;;;;22.40;32.66;97080.83;109781;1250;59706;-68
2022/04/26 14:28:02;;;;;;;1.70;1.30;;;;;;;21.38;33.06;97078.73;109880;1250;70706;-68
2022/04/26 14:30:31;;;;;;;1.90;1.40;;;;;;;21.27;33.76;97076.54;109766;1251;67966;-69
2022/04/26 14:33:10;;;;;;;2.10;1.50;;;;;;;21.08;33.42;97075.28;109577;1253;69436;-68
2022/04/26 14:35:39;;;;;;;2.80;1.50;;;;;;;21.21;33.73;97073.92;109756;1253;60101;-68
2022/04/26 14:38:10;;;;;;;2.40;1.40;;;;;;;21.27;34.04;97073.73;109763;1251;59646;-67
2022/04/26 14:40:39;;;;;;;1.10;0.90;;;;;;;21.21;34.03;97076.63;109736;1253;69886;-67
2022/04/26 14:43:14;;;;;;;1.80;1.40;;;;;;;21.25;33.67;97078.23;109604;1253;68627;-68
2022/04/26 14:45:45;;;;;;;2.30;1.40;;;;;;;21.12;33.46;97080.35;109601;1254;68913;-70
2022/04/26 14:48:16;;;;;;;1.90;1.20;;;;;;;21.35;34.62;97081.13;109715;1253;59692;-69
2022/04/26 14:50:55;;;;;;;1.80;0.80;;;;;;;21.56;34.86;97080.85;109753;1252;59693;-68
2022/04/26 14:53:25;;;;;;;1.40;1.20;;;;;;;21.71;34.76;97082.51;109665;1252;70830;-67
2022/04/26 14:56:10;;;;;;;2.00;1.20;;;;;;;21.81;34.97;97082.86;109604;1253;68676;-66
2022/04/26 14:59:01;;;;;;;2.30;1.30;;;;;;;21.80;35.12;97079.04;109610;1254;68812;-67
2022/04/26 15:01:46;;;;;;;2.40;1.20;;;;;;;21.75;35.08;97076.66;109642;1253;59714;-68
2022/04/26 15:04:17;;;;;;;3.30;1.40;;;;;;;21.77;35.54;97073.64;109887;1253;59747;-68
2022/04/26 15:06:47;;;;;;;2.00;1.30;;;;;;;21.78;35.31;97074.13;109716;1253;72137;-68
2022/04/26 15:17:41;;;;;;;2.10;1.20;;;;;;;21.62;34.98;97075.83;109733;1253;59784;-67
2022/04/26 15:20:12;;;;;;;2.10;1.40;;;;;;;21.61;35.49;97074.14;109865;1252;71740;-68
2022/04/26 15:22:41;;;;;;;2.30;1.10;;;;;;;21.59;35.21;97077.23;109566;1253;69367;-67
2022/04/26 15:25:11;;;;;;;1.80;1.30;;;;;;;21.52;35.20;97073.35;109478;1252;68673;-68
2022/04/26 15:27:40;;;;;;;1.90;1.20;;;;;;;21.38;36.20;97072.63;109616;1253;59687;-67
2022/04/26 15:30:11;;;;;;;1.50;1.00;;;;;;;21.33;35.83;97072.75;109655;1253;59767;-67
2022/04/26 15:32:40;;;;;;;1.40;1.10;;;;;;;21.23;35.99;97070.11;109560;1253;70665;-67
2022/04/26 15:35:10;;;;;;;1.30;1.10;;;;;;;21.20;36.01;97070.43;109570;1253;68224;-67
2022/04/26 15:37:39;;;;;;;1.90;0.80;;;;;;;21.18;35.77;97066.33;109742;1253;68843;-67
2022/04/26 15:40:08;;;;;;;2.40;1.10;;;;;;;21.20;35.64;97067.11;109737;1253;59643;-68
2022/04/26 15:42:38;;;;;;;2.60;1.60;;;;;;;21.20;36.01;97066.77;109665;1252;59836;-68
2022/04/26 15:45:08;;;;;;;2.20;1.20;;;;;;;21.02;36.59;97068.38;109782;1250;70569;-68
2022/04/26 15:47:37;;;;;;;2.20;1.30;;;;;;;20.95;36.63;97070.05;109795;1250;67102;-67
2022/04/26 15:50:07;;;;;;;;;;;;;;;20.85;37.37;97069.63;109765;1250;68780;-67
2022/04/26 15:52:37;;;;;;;;;;;;;;;20.77;37.63;97066.87;109725;1250;59756;-67
2022/04/26 15:55:07;;;;;;;1.30;1.20;;;;;;;20.75;37.88;97067.17;109521;1253;59704;-67
2022/04/26 15:57:37;;;;;;;2.10;1.60;;;;;;;20.68;37.88;97066.66;109574;1253;71388;-67